createdAt,value
2018-10-11T00:00:35.143Z,101672.00
2018-10-11T00:03:05.095Z,101668.00
2018-10-11T00:05:35.026Z,101669.00
2018-10-11T00:08:05.064Z,101663.00
2018-10-11T00:10:35.018Z,101669.00
2018-10-11T00:13:05.104Z,101661.00
2018-10-11T00:15:35.018Z,101656.00
2018-10-11T00:18:05.157Z,101660.00
2018-10-11T00:20:35.049Z,101659.00
2018-10-11T00:23:05.100Z,101659.00
2018-10-11T00:25:35.070Z,101664.00
2018-10-11T00:28:05.062Z,101667.00
2018-10-11T00:30:35.157Z,101661.00
2018-10-11T00:33:05.076Z,101659.00
2018-10-11T00:35:35.051Z,101655.00
2018-10-11T00:38:05.072Z,101650.00
2018-10-11T00:40:35.153Z,101652.00
2018-10-11T00:43:05.029Z,101650.00
2018-10-11T00:45:35.193Z,101647.00
2018-10-11T00:48:05.513Z,101646.00
2018-10-11T00:50:35.139Z,101647.00
2018-10-11T00:53:05.121Z,101651.00
2018-10-11T00:55:35.206Z,101652.00
2018-10-11T00:58:05.429Z,101654.00
2018-10-11T01:00:35.257Z,101649.00
2018-10-11T01:03:05.115Z,101644.00
2018-10-11T01:05:35.098Z,101642.00
2018-10-11T01:08:05.150Z,101638.00
2018-10-11T01:10:35.199Z,101639.00
2018-10-11T01:13:05.170Z,101633.00
2018-10-11T01:15:35.359Z,101631.00
2018-10-11T01:18:11.914Z,101624.00
2018-10-11T01:20:41.287Z,101625.00
2018-10-11T01:23:10.594Z,101625.00
2018-10-11T01:25:39.960Z,101623.00
2018-10-11T01:28:09.307Z,101619.00
2018-10-11T01:30:42.815Z,101608.00
2018-10-11T01:33:12.251Z,101604.00
2018-10-11T01:35:41.635Z,101605.00
2018-10-11T01:38:10.951Z,101607.00
2018-10-11T01:40:41.207Z,101603.00
2018-10-11T01:43:10.628Z,101592.00
2018-10-11T01:45:39.941Z,101591.00
2018-10-11T01:48:09.275Z,101582.00
2018-10-11T01:50:38.595Z,101575.00
2018-10-11T01:53:07.914Z,101580.00
2018-10-11T01:55:37.275Z,101577.00
2018-10-11T01:58:06.677Z,101578.00
2018-10-11T02:00:35.994Z,101574.00
2018-10-11T02:03:05.430Z,101574.00
2018-10-11T02:05:35.186Z,101570.00
2018-10-11T02:08:05.336Z,101578.00
2018-10-11T02:10:35.327Z,101577.00
2018-10-11T02:13:05.250Z,101582.00
2018-10-11T02:15:35.320Z,101580.00
2018-10-11T02:18:05.454Z,101572.00
2018-10-11T02:20:35.272Z,101568.00
2018-10-11T02:23:05.238Z,101566.00
2018-10-11T02:25:35.488Z,101559.00
2018-10-11T02:28:05.309Z,101553.00
2018-10-11T02:30:35.307Z,101553.00
2018-10-11T02:33:05.350Z,101551.00
2018-10-11T02:35:35.257Z,101552.00
2018-10-11T02:38:05.309Z,101556.00
2018-10-11T02:40:35.297Z,101550.00
2018-10-11T02:43:05.391Z,101556.00
2018-10-11T02:45:35.279Z,101552.00
2018-10-11T02:48:06.385Z,101551.00
2018-10-11T02:50:35.751Z,101551.00
2018-10-11T02:53:05.310Z,101546.00
2018-10-11T02:55:35.374Z,101545.00
2018-10-11T02:58:22.538Z,101544.00
2018-10-11T03:00:52.450Z,101537.00
2018-10-11T03:03:26.446Z,101538.00
2018-10-11T03:05:56.670Z,101543.00
2018-10-11T03:08:27.399Z,101530.00
2018-10-11T03:10:57.207Z,101533.00
2018-10-11T03:13:26.601Z,101523.00
2018-10-11T03:15:55.988Z,101523.00
2018-10-11T03:18:25.365Z,101520.00
2018-10-11T03:20:54.703Z,101518.00
2018-10-11T03:23:24.035Z,101516.00
2018-10-11T03:25:53.445Z,101522.00
2018-10-11T03:28:22.813Z,101515.00
2018-10-11T03:30:52.154Z,101513.00
2018-10-11T03:33:21.453Z,101502.00
2018-10-11T03:35:50.820Z,101497.00
2018-10-11T03:38:20.146Z,101497.00
2018-10-11T03:40:49.520Z,101495.00
2018-10-11T03:43:18.883Z,101499.00
2018-10-11T03:45:48.222Z,101501.00
2018-10-11T03:48:17.937Z,101508.00
2018-10-11T03:50:47.259Z,101508.00
2018-10-11T03:53:16.599Z,101508.00
2018-10-11T03:55:45.919Z,101514.00
2018-10-11T03:58:15.329Z,101522.00
2018-10-11T04:00:44.654Z,101510.00
2018-10-11T04:03:14.036Z,101507.00
2018-10-11T04:05:43.424Z,101505.00
2018-10-11T04:08:12.786Z,101504.00
2018-10-11T04:10:42.184Z,101502.00
2018-10-11T04:13:11.830Z,101501.00
2018-10-11T04:15:41.291Z,101498.00
2018-10-11T04:18:10.685Z,101502.00
2018-10-11T04:20:40.073Z,101502.00
2018-10-11T04:23:13.644Z,101501.00
2018-10-11T04:25:43.042Z,101503.00
2018-10-11T04:28:12.372Z,101508.00
2018-10-11T04:30:41.815Z,101508.00
2018-10-11T04:33:11.205Z,101510.00
2018-10-11T04:35:40.609Z,101504.00
2018-10-11T04:38:09.987Z,101504.00
2018-10-11T04:40:39.680Z,101502.00
2018-10-11T04:43:09.220Z,101505.00
2018-10-11T04:45:38.437Z,101507.00
2018-10-11T04:48:08.187Z,101514.00
2018-10-11T04:50:37.520Z,101515.00
2018-10-11T04:53:06.886Z,101516.00
2018-10-11T04:55:36.262Z,101514.00
2018-10-11T04:58:05.646Z,101506.00
2018-10-11T05:00:35.515Z,101514.00
2018-10-11T05:03:05.545Z,101514.00
2018-10-11T05:05:35.482Z,101517.00
2018-10-11T05:08:05.731Z,101524.00
2018-10-11T05:10:35.602Z,101517.00
2018-10-11T05:13:05.747Z,101514.00
2018-10-11T05:15:37.464Z,101508.00
2018-10-11T05:18:08.027Z,101505.00
2018-10-11T05:20:37.459Z,101501.00
2018-10-11T05:23:07.084Z,101494.00
2018-10-11T05:25:36.510Z,101492.00
2018-10-11T05:28:06.031Z,101493.00
2018-10-11T05:30:39.994Z,101484.00
2018-10-11T05:33:09.463Z,101486.00
2018-10-11T05:35:38.847Z,101486.00
2018-10-11T05:38:08.283Z,101484.00
2018-10-11T05:40:37.599Z,101481.00
2018-10-11T05:43:07.149Z,101476.00
2018-10-11T05:45:37.299Z,101472.00
2018-10-11T05:48:06.714Z,101476.00
2018-10-11T05:50:36.041Z,101477.00
2018-10-11T05:53:05.931Z,101477.00
2018-10-11T05:55:35.589Z,101476.00
2018-10-11T05:58:05.776Z,101485.00
2018-10-11T06:00:38.809Z,101486.00
2018-10-11T06:03:08.199Z,101485.00
2018-10-11T06:05:37.631Z,101485.00
2018-10-11T06:08:07.499Z,101493.00
2018-10-11T06:10:40.686Z,101495.00
2018-10-11T06:13:10.666Z,101496.00
2018-10-11T06:15:40.533Z,101497.00
2018-10-11T06:18:10.382Z,101499.00
2018-10-11T06:20:39.878Z,101496.00
2018-10-11T06:23:09.345Z,101499.00
2018-10-11T06:25:38.848Z,101497.00
2018-10-11T06:28:08.663Z,101495.00
2018-10-11T06:30:38.477Z,101494.00
2018-10-11T06:33:07.883Z,101491.00
2018-10-11T06:35:37.773Z,101480.00
2018-10-11T06:38:07.174Z,101483.00
2018-10-11T06:40:37.643Z,101483.00
2018-10-11T06:43:07.361Z,101482.00
2018-10-11T06:45:36.757Z,101475.00
2018-10-11T06:48:09.657Z,101463.00
2018-10-11T06:50:39.459Z,101468.00
2018-10-11T06:53:08.923Z,101473.00
2018-10-11T06:55:38.256Z,101470.00
2018-10-11T06:58:07.789Z,101475.00
2018-10-11T07:00:37.170Z,101476.00
2018-10-11T07:03:07.211Z,101479.00
2018-10-11T07:05:36.591Z,101473.00
2018-10-11T07:08:06.373Z,101475.00
2018-10-11T07:10:36.382Z,101465.00
2018-10-11T07:13:06.365Z,101453.00
2018-10-11T07:15:36.430Z,101458.00
2018-10-11T07:18:06.545Z,101468.00
2018-10-11T07:20:36.407Z,101469.00
2018-10-11T07:23:06.542Z,101469.00
2018-10-11T07:25:36.478Z,101465.00
2018-10-11T07:28:06.453Z,101465.00
2018-10-11T07:30:36.511Z,101463.00
2018-10-11T07:33:06.582Z,101467.00
2018-10-11T07:35:36.457Z,101474.00
2018-10-11T07:38:06.524Z,101481.00
2018-10-11T07:40:36.429Z,101475.00
2018-10-11T07:43:06.490Z,101482.00
2018-10-11T07:45:36.440Z,101487.00
2018-10-11T07:48:07.423Z,101491.00
2018-10-11T07:50:36.810Z,101485.00
2018-10-11T07:53:06.570Z,101485.00
2018-10-11T07:55:36.776Z,101482.00
2018-10-11T07:58:06.633Z,101478.00
2018-10-11T08:00:36.531Z,101479.00
2018-10-11T08:03:06.527Z,101480.00
2018-10-11T08:05:38.073Z,101489.00
2018-10-11T08:08:07.688Z,101484.00
2018-10-11T08:10:37.294Z,101485.00
2018-10-11T08:13:06.733Z,101484.00
2018-10-11T08:15:36.665Z,101489.00
2018-10-11T08:18:07.237Z,101504.00
2018-10-11T08:20:36.745Z,101521.00
2018-10-11T08:23:06.700Z,101533.00
2018-10-11T08:25:37.124Z,101529.00
2018-10-11T08:28:07.287Z,101526.00
2018-10-11T08:30:36.708Z,101513.00
2018-10-11T08:33:06.886Z,101517.00
2018-10-11T08:35:36.603Z,101511.00
2018-10-11T08:38:07.091Z,101498.00
2018-10-11T08:40:36.594Z,101494.00
2018-10-11T08:43:06.961Z,101494.00
2018-10-11T08:45:36.615Z,101494.00
2018-10-11T08:48:06.724Z,101499.00
2018-10-11T08:50:36.703Z,101513.00
2018-10-11T08:53:07.330Z,101519.00
2018-10-11T08:55:36.962Z,101508.00
2018-10-11T08:58:06.612Z,101522.00
2018-10-11T09:00:36.625Z,101517.00
2018-10-11T09:03:06.756Z,101508.00
2018-10-11T09:05:36.663Z,101516.00
2018-10-11T09:08:06.809Z,101524.00
2018-10-11T09:10:38.450Z,101524.00
2018-10-11T09:13:06.720Z,101509.00
2018-10-11T09:15:37.718Z,101514.00
2018-10-11T09:18:07.245Z,101525.00
2018-10-11T09:20:36.650Z,101506.00
2018-10-11T09:23:07.177Z,101508.00
2018-10-11T09:25:36.623Z,101502.00
2018-10-11T09:28:07.015Z,101499.00
2018-10-11T09:30:36.628Z,101505.00
2018-10-11T09:33:06.805Z,101496.00
2018-10-11T09:35:36.771Z,101495.00
2018-10-11T09:38:06.900Z,101493.00
2018-10-11T09:40:36.844Z,101492.00
2018-10-11T09:43:06.810Z,101498.00
2018-10-11T09:45:36.881Z,101490.00
2018-10-11T09:48:06.688Z,101487.00
2018-10-11T09:50:36.757Z,101480.00
2018-10-11T09:53:06.891Z,101464.00
2018-10-11T09:55:36.798Z,101463.00
2018-10-11T09:58:06.792Z,101460.00
2018-10-11T10:00:42.112Z,101464.00
2018-10-11T10:03:11.421Z,101456.00
2018-10-11T10:05:40.849Z,101451.00
2018-10-11T10:08:10.439Z,101448.00
2018-10-11T10:10:39.761Z,101444.00
2018-10-11T10:13:09.238Z,101439.00
2018-10-11T10:15:38.670Z,101441.00
2018-10-11T10:18:08.195Z,101441.00
2018-10-11T10:20:37.605Z,101435.00
2018-10-11T10:23:07.065Z,101435.00
2018-10-11T10:25:36.864Z,101434.00
2018-10-11T10:28:06.862Z,101425.00
2018-10-11T10:30:42.239Z,101424.00
2018-10-11T10:33:11.690Z,101426.00
2018-10-11T10:35:41.168Z,101423.00
2018-10-11T10:38:10.664Z,101412.00
2018-10-11T10:40:40.179Z,101408.00
2018-10-11T10:43:10.124Z,101402.00
2018-10-11T10:45:39.680Z,101405.00
2018-10-11T10:48:09.335Z,101412.00
2018-10-11T10:50:39.292Z,101413.00
2018-10-11T10:53:08.939Z,101413.00
2018-10-11T10:55:38.534Z,101424.00
2018-10-11T10:58:08.109Z,101432.00
2018-10-11T11:00:37.571Z,101435.00
2018-10-11T11:03:07.349Z,101444.00
2018-10-11T11:05:36.930Z,101437.00
2018-10-11T11:08:06.987Z,101436.00
2018-10-11T11:10:36.804Z,101441.00
2018-10-11T11:13:06.886Z,101446.00
2018-10-11T11:15:36.872Z,101446.00
2018-10-11T11:18:06.983Z,101451.00
2018-10-11T11:20:36.899Z,101446.00
2018-10-11T11:23:07.104Z,101444.00
2018-10-11T11:25:36.939Z,101433.00
2018-10-11T11:28:07.002Z,101442.00
2018-10-11T11:30:37.022Z,101445.00
2018-10-11T11:33:07.013Z,101443.00
2018-10-11T11:35:36.957Z,101439.00
2018-10-11T11:38:06.975Z,101432.00
2018-10-11T11:40:36.897Z,101424.00
2018-10-11T11:43:07.224Z,101423.00
2018-10-11T11:45:37.053Z,101435.00
2018-10-11T11:48:07.479Z,101428.00
2018-10-11T11:50:36.989Z,101433.00
2018-10-11T11:53:07.130Z,101429.00
2018-10-11T11:55:36.903Z,101425.00
2018-10-11T11:58:07.155Z,101417.00
2018-10-11T12:00:37.002Z,101413.00
2018-10-11T12:03:07.098Z,101407.00
2018-10-11T12:05:36.926Z,101403.00
2018-10-11T12:08:06.921Z,101396.00
2018-10-11T12:10:37.104Z,101398.00
2018-10-11T12:13:10.545Z,101388.00
2018-10-11T12:15:41.150Z,101388.00
2018-10-11T12:18:10.825Z,101387.00
2018-10-11T12:20:41.417Z,101396.00
2018-10-11T12:23:11.796Z,101388.00
2018-10-11T12:25:41.229Z,101391.00
2018-10-11T12:28:10.552Z,101386.00
2018-10-11T12:30:39.922Z,101393.00
2018-10-11T12:33:12.134Z,101398.00
2018-10-11T12:35:41.630Z,101406.00
2018-10-11T12:38:10.974Z,101398.00
2018-10-11T12:40:40.381Z,101408.00
2018-10-11T12:43:09.786Z,101407.00
2018-10-11T12:45:40.168Z,101405.00
2018-10-11T12:48:09.495Z,101411.00
2018-10-11T12:50:38.890Z,101413.00
2018-10-11T12:53:08.600Z,101405.00
2018-10-11T12:55:37.995Z,101406.00
2018-10-11T12:58:07.398Z,101412.00
2018-10-11T13:00:37.131Z,101407.00
2018-10-11T13:03:07.249Z,101412.00
2018-10-11T13:05:37.057Z,101404.00
2018-10-11T13:08:07.175Z,101404.00
2018-10-11T13:10:37.077Z,101404.00
2018-10-11T13:13:10.572Z,101398.00
2018-10-11T13:15:37.155Z,101392.00
2018-10-11T13:18:07.219Z,101393.00
2018-10-11T13:20:37.176Z,101387.00
2018-10-11T13:23:10.796Z,101383.00
2018-10-11T13:25:37.132Z,101382.00
2018-10-11T13:28:07.124Z,101383.00
2018-10-11T13:30:37.249Z,101388.00
2018-10-11T13:33:07.237Z,101385.00
2018-10-11T13:35:37.129Z,101387.00
2018-10-11T13:38:07.096Z,101398.00
2018-10-11T13:40:37.203Z,101404.00
2018-10-11T13:43:07.146Z,101402.00
2018-10-11T13:45:37.189Z,101404.00
2018-10-11T13:48:07.482Z,101405.00
2018-10-11T13:50:37.310Z,101406.00
2018-10-11T13:53:07.547Z,101407.00
2018-10-11T13:55:37.146Z,101408.00
2018-10-11T13:58:07.194Z,101415.00
2018-10-11T14:00:37.193Z,101409.00
2018-10-11T14:03:07.318Z,101412.00
2018-10-11T14:05:37.210Z,101405.00
2018-10-11T14:08:07.193Z,101405.00
2018-10-11T14:10:37.208Z,101411.00
2018-10-11T14:13:12.984Z,101407.00
2018-10-11T14:15:37.222Z,101408.00
2018-10-11T14:18:10.417Z,101402.00
2018-10-11T14:20:37.280Z,101397.00
2018-10-11T14:23:07.741Z,101402.00
2018-10-11T14:25:37.321Z,101398.00
2018-10-11T14:28:07.397Z,101405.00
2018-10-11T14:30:37.379Z,101407.00
2018-10-11T14:33:07.343Z,101408.00
2018-10-11T14:35:37.206Z,101412.00
2018-10-11T14:38:07.534Z,101408.00
2018-10-11T14:40:37.199Z,101414.00
2018-10-11T14:43:07.572Z,101412.00
2018-10-11T14:45:37.297Z,101406.00
2018-10-11T14:48:07.410Z,101403.00
2018-10-11T14:50:37.239Z,101411.00
2018-10-11T14:53:07.548Z,101411.00
2018-10-11T14:55:37.407Z,101407.00
2018-10-11T14:58:07.533Z,101409.00
2018-10-11T15:00:37.885Z,101413.00
2018-10-11T15:03:07.484Z,101413.00
2018-10-11T15:05:37.448Z,101416.00
2018-10-11T15:08:07.503Z,101407.00
2018-10-11T15:10:38.336Z,101411.00
2018-10-11T15:13:08.044Z,101418.00
2018-10-11T15:15:37.506Z,101411.00
2018-10-11T15:18:07.605Z,101407.00
2018-10-11T15:20:37.612Z,101408.00
2018-10-11T15:23:07.379Z,101414.00
2018-10-11T15:25:37.346Z,101413.00
2018-10-11T15:28:07.469Z,101420.00
2018-10-11T15:30:37.343Z,101422.00
2018-10-11T15:33:07.324Z,101415.00
2018-10-11T15:35:37.451Z,101418.00
2018-10-11T15:38:08.899Z,101420.00
2018-10-11T15:40:38.382Z,101428.00
2018-10-11T15:43:07.747Z,101429.00
2018-10-11T15:45:37.363Z,101427.00
2018-10-11T15:48:07.485Z,101421.00
2018-10-11T15:50:37.368Z,101427.00
2018-10-11T15:53:07.638Z,101426.00
2018-10-11T15:55:37.436Z,101432.00
2018-10-11T15:58:07.371Z,101433.00
2018-10-11T16:00:37.377Z,101434.00
2018-10-11T16:03:07.413Z,101433.00
2018-10-11T16:05:37.619Z,101432.00
2018-10-11T16:08:07.448Z,101428.00
2018-10-11T16:10:37.346Z,101432.00
2018-10-11T16:13:07.415Z,101434.00
2018-10-11T16:15:37.494Z,101431.00
2018-10-11T16:18:07.394Z,101433.00
2018-10-11T16:20:37.514Z,101433.00
2018-10-11T16:23:07.422Z,101432.00
2018-10-11T16:25:37.556Z,101434.00
2018-10-11T16:28:07.546Z,101435.00
2018-10-11T16:30:37.782Z,101433.00
2018-10-11T16:33:07.429Z,101434.00
2018-10-11T16:35:37.470Z,101443.00
2018-10-11T16:38:07.528Z,101445.00
2018-10-11T16:40:37.529Z,101446.00
2018-10-11T16:43:07.633Z,101444.00
2018-10-11T16:45:37.466Z,101446.00
2018-10-11T16:48:07.563Z,101446.00
2018-10-11T16:50:37.497Z,101444.00
2018-10-11T16:53:07.786Z,101442.00
2018-10-11T16:55:37.624Z,101441.00
2018-10-11T16:58:07.977Z,101440.00
2018-10-11T17:00:37.506Z,101448.00
2018-10-11T17:03:07.560Z,101457.00
2018-10-11T17:05:37.614Z,101458.00
2018-10-11T17:08:08.051Z,101456.00
2018-10-11T17:10:37.670Z,101460.00
2018-10-11T17:13:07.772Z,101464.00
2018-10-11T17:15:37.562Z,101464.00
2018-10-11T17:18:07.567Z,101462.00
2018-10-11T17:20:37.742Z,101460.00
2018-10-11T17:23:07.711Z,101466.00
2018-10-11T17:25:37.582Z,101466.00
2018-10-11T17:28:07.803Z,101470.00
2018-10-11T17:30:37.615Z,101468.00
2018-10-11T17:33:07.611Z,101467.00
2018-10-11T17:35:38.094Z,101475.00
2018-10-11T17:38:07.585Z,101489.00
2018-10-11T17:40:37.578Z,101505.00
2018-10-11T17:43:07.660Z,101507.00
2018-10-11T17:45:37.559Z,101504.00
2018-10-11T17:48:07.626Z,101507.00
2018-10-11T17:50:37.629Z,101505.00
2018-10-11T17:53:07.698Z,101501.00
2018-10-11T17:55:37.657Z,101502.00
2018-10-11T17:58:07.682Z,101496.00
2018-10-11T18:00:37.552Z,101503.00
2018-10-11T18:03:07.788Z,101508.00
2018-10-11T18:05:37.593Z,101506.00
2018-10-11T18:08:07.864Z,101505.00
2018-10-11T18:10:37.742Z,101508.00
2018-10-11T18:13:08.521Z,101507.00
2018-10-11T18:15:37.874Z,101506.00
2018-10-11T18:18:07.908Z,101499.00
2018-10-11T18:20:37.742Z,101500.00
2018-10-11T18:23:07.704Z,101506.00
2018-10-11T18:25:37.681Z,101506.00
2018-10-11T18:28:07.751Z,101504.00
2018-10-11T18:30:37.801Z,101501.00
2018-10-11T18:33:07.753Z,101497.00
2018-10-11T18:35:37.797Z,101501.00
2018-10-11T18:38:07.807Z,101504.00
2018-10-11T18:40:37.770Z,101504.00
2018-10-11T18:43:07.823Z,101500.00
2018-10-11T18:45:37.659Z,101501.00
2018-10-11T18:48:07.794Z,101508.00
2018-10-11T18:50:37.685Z,101501.00
2018-10-11T18:53:07.828Z,101507.00
2018-10-11T18:55:37.783Z,101500.00
2018-10-11T18:58:07.902Z,101505.00
2018-10-11T19:00:37.735Z,101496.00
2018-10-11T19:03:08.296Z,101497.00
2018-10-11T19:05:37.909Z,101495.00
2018-10-11T19:08:07.805Z,101498.00
2018-10-11T19:10:37.905Z,101501.00
2018-10-11T19:13:07.760Z,101501.00
2018-10-11T19:15:37.964Z,101496.00
2018-10-11T19:18:07.908Z,101509.00
2018-10-11T19:20:37.909Z,101504.00
2018-10-11T19:23:07.839Z,101501.00
2018-10-11T19:25:37.835Z,101506.00
2018-10-11T19:28:07.900Z,101501.00
2018-10-11T19:30:37.982Z,101498.00
2018-10-11T19:33:07.918Z,101501.00
2018-10-11T19:35:37.894Z,101505.00
2018-10-11T19:38:07.869Z,101509.00
2018-10-11T19:40:37.922Z,101505.00
2018-10-11T19:43:07.978Z,101509.00
2018-10-11T19:45:38.129Z,101507.00
2018-10-11T19:48:07.947Z,101505.00
2018-10-11T19:50:37.862Z,101509.00
2018-10-11T19:53:07.885Z,101501.00
2018-10-11T19:55:37.925Z,101496.00
2018-10-11T19:58:08.377Z,101504.00
2018-10-11T20:00:37.900Z,101502.00
2018-10-11T20:03:07.846Z,101504.00
2018-10-11T20:05:37.886Z,101500.00
2018-10-11T20:08:07.940Z,101502.00
2018-10-11T20:10:39.993Z,101503.00
2018-10-11T20:13:11.013Z,101502.00
2018-10-11T20:15:41.204Z,101502.00
2018-10-11T20:18:11.227Z,101502.00
2018-10-11T20:20:41.290Z,101502.00
2018-10-11T20:23:11.368Z,101501.00
2018-10-11T20:25:40.737Z,101505.00
2018-10-11T20:28:10.189Z,101503.00
2018-10-11T20:30:39.642Z,101504.00
2018-10-11T20:33:09.083Z,101507.00
2018-10-11T20:35:38.427Z,101503.00
2018-10-11T20:38:08.003Z,101508.00
2018-10-11T20:40:46.302Z,101504.00
2018-10-11T20:43:15.953Z,101508.00
2018-10-11T20:45:45.380Z,101512.00
2018-10-11T20:48:16.893Z,101509.00
2018-10-11T20:50:46.660Z,101512.00
2018-10-11T20:53:16.160Z,101515.00
2018-10-11T20:55:45.539Z,101500.00
2018-10-11T20:58:14.909Z,101500.00
2018-10-11T21:00:44.376Z,101505.00
2018-10-11T21:03:13.856Z,101505.00
2018-10-11T21:05:43.237Z,101508.00
2018-10-11T21:08:12.709Z,101513.00
2018-10-11T21:10:42.099Z,101511.00
2018-10-11T21:13:18.210Z,101518.00
2018-10-11T21:15:47.618Z,101523.00
2018-10-11T21:18:17.137Z,101519.00
2018-10-11T21:20:46.438Z,101521.00
2018-10-11T21:23:15.813Z,101520.00
2018-10-11T21:25:45.190Z,101510.00
2018-10-11T21:28:14.684Z,101511.00
2018-10-11T21:30:44.076Z,101514.00
2018-10-11T21:33:14.031Z,101516.00
2018-10-11T21:35:43.440Z,101517.00
2018-10-11T21:38:12.850Z,101522.00
2018-10-11T21:40:42.304Z,101529.00
2018-10-11T21:43:11.702Z,101530.00
2018-10-11T21:45:41.157Z,101534.00
2018-10-11T21:48:10.536Z,101537.00
2018-10-11T21:50:39.930Z,101537.00
2018-10-11T21:53:09.369Z,101531.00
2018-10-11T21:55:38.704Z,101535.00
2018-10-11T21:58:08.095Z,101530.00
2018-10-11T22:00:43.408Z,101533.00
2018-10-11T22:03:12.800Z,101520.00
2018-10-11T22:05:42.295Z,101521.00
2018-10-11T22:08:11.796Z,101512.00
2018-10-11T22:10:41.198Z,101510.00
2018-10-11T22:13:10.641Z,101514.00
2018-10-11T22:15:40.122Z,101510.00
2018-10-11T22:18:09.445Z,101511.00
2018-10-11T22:20:38.871Z,101512.00
2018-10-11T22:23:08.347Z,101517.00
2018-10-11T22:25:38.189Z,101515.00
2018-10-11T22:28:08.222Z,101518.00
2018-10-11T22:30:38.307Z,101522.00
2018-10-11T22:33:08.307Z,101521.00
2018-10-11T22:35:38.266Z,101522.00
2018-10-11T22:38:08.317Z,101533.00
2018-10-11T22:40:38.199Z,101531.00
2018-10-11T22:43:08.252Z,101534.00
2018-10-11T22:45:38.225Z,101538.00
2018-10-11T22:48:08.287Z,101540.00
2018-10-11T22:50:38.183Z,101538.00
2018-10-11T22:53:08.402Z,101537.00
2018-10-11T22:55:38.184Z,101538.00
2018-10-11T22:58:08.336Z,101533.00
2018-10-11T23:00:38.192Z,101540.00
2018-10-11T23:03:08.333Z,101532.00
2018-10-11T23:05:38.217Z,101532.00
2018-10-11T23:08:08.381Z,101526.00
2018-10-11T23:10:38.333Z,101524.00
2018-10-11T23:13:08.360Z,101520.00
2018-10-11T23:15:38.312Z,101524.00
2018-10-11T23:18:08.284Z,101524.00
2018-10-11T23:20:38.263Z,101522.00
2018-10-11T23:23:08.286Z,101522.00
2018-10-11T23:25:38.438Z,101525.00
2018-10-11T23:28:08.259Z,101527.00
2018-10-11T23:30:38.406Z,101523.00
2018-10-11T23:33:08.327Z,101527.00
2018-10-11T23:35:38.318Z,101525.00
2018-10-11T23:38:08.325Z,101524.00
2018-10-11T23:40:44.739Z,101532.00
2018-10-11T23:43:14.154Z,101532.00
2018-10-11T23:45:43.551Z,101536.00
2018-10-11T23:48:12.992Z,101542.00
2018-10-11T23:50:42.353Z,101547.00
2018-10-11T23:53:11.801Z,101545.00
2018-10-11T23:55:41.132Z,101545.00
2018-10-11T23:58:10.565Z,101548.00
